Ext Lago Horizonte, Puerto Rico
Current Conditions -  °F | °C
As of 3:50 AM on Sunday 21 Dec 2014 (Local Time) from TJPS Reporting Station
Few Clouds Few Clouds  
Wind Chill: 70°   Ceiling: Unl
Heat Index: 70°   Visibility: 8mi
Dew Point: 66°   Wind: 6mph
Humidity: 88%   Direction: 40°NE
Pressure: 29.97"   Gusts: NA
Location:  18.0474°N, 66.5517°W
Report Text: TJPS 210750Z 04005KT 8SM FEW025 21/19 A2997
Loading
Personal Weather Stations






























Interactive Weather Map New forecast layout! Learn more

10-Day Weather Forecast

Advertisements
Track Severe Weather on mobile